Watford City, North Dakota
Current Conditions -  °F | °C
As of 10:29 AM on Wednesday 22 Oct 2014 (Local Time) from KISN Reporting Station
Broken Clouds Broken Clouds  
Wind Chill: 53°   Ceiling: 2700
Heat Index: 53°   Visibility: 10mi
Dew Point: 42°   Wind: 13mph
Humidity: 66%   Direction: 230°SW
Pressure: 29.81"   Gusts: NA
Location:  47.8°N, 103.28°W
Report Text: KISN 221529Z AUTO 23011KT 10SM BKN027 12/06 A2981 RMK AO2 T01170056
Loading
Personal Weather Stations






























Interactive Weather Map
Tropical Storm Tracking
New forecast layout! Learn more

10-Day Weather Forecast

Advertisements
Track Severe Weather on mobile